Terminal Aerodrome Forecast
Issued by NWS

Home | Current Version | Previous Version | Text Only | Print | Product List | Glossary On
Versions: 1 2 3 4 5 6 7 8 9 10 11 12 13 14 15
000
FTUS42 KGSP 250500 CCA
TAFGMU
TAF COR
KGMU 250545Z 2506/2606 14006KT P6SM OVC080
     FM250900 17003KT P6SM OVC025
     FM251100 18004KT P6SM OVC007
     FM251300 19007KT P6SM VCTS OVC025CB
     FM251500 22014G23KT P6SM SCT025 OVC050 PROB30 2515/2521 4SM
      TSRA OVC015CB
     FM252100 26014G22KT P6SM BKN050 OVC250
     FM252300 26012KT P6SM FEW250
     FM260200 30006KT P6SM SKC=

USA.gov is the U.S. government's official web portal to all federal, state and local government web resources and services.